Time;durP1;ratioP1;P1;durP2;ratioP2;P2;SDS_P1;SDS_P2;PMS_P1;PMS_P2;Temp;Humidity;BMP_temperature;BMP_pressure;BME280_temperature;BME280_humidity;BME280_pressure;Samples;Min_cycle;Max_cycle;Signal;HPM_P1;HPM_P2
2022/02/13 00:01:54;;;;;;;;;;;;;;;29.28;17.79;102622.03;5077656;28;801;-42
2022/02/13 00:04:19;;;;;;;;;;;;;;;29.07;17.98;102614.19;5077963;28;798;-43
2022/02/13 00:06:45;;;;;;;;;;;;;;;29.19;17.84;102621.13;5069596;28;1134;-44
2022/02/13 00:09:11;;;;;;;;;;;;;;;28.50;18.42;102620.50;5077550;28;837;-43
2022/02/13 00:11:37;;;;;;;;;;;;;;;28.17;18.87;102620.84;5077799;28;832;-42
2022/02/13 00:14:02;;;;;;;;;;;;;;;30.10;17.08;102617.56;5069922;28;1913;-45
2022/02/13 00:16:27;;;;;;;;;;;;;;;28.98;17.80;102618.63;5076193;28;877;-42
2022/02/13 00:18:52;;;;;;;;;;;;;;;28.42;18.25;102614.00;5072983;28;1131;-43
2022/02/13 00:21:18;;;;;;;;;;;;;;;28.51;18.42;102614.13;5072491;28;1052;-42
2022/02/13 00:23:43;;;;;;;;;;;;;;;28.79;18.20;102615.00;5076905;28;1276;-42
2022/02/13 00:26:08;;;;;;;;;;;;;;;29.42;17.60;102615.25;5077427;28;768;-43
2022/02/13 00:28:36;;;;;;;;;;;;;;;29.30;17.70;102620.03;5076102;28;847;-42
2022/02/13 00:31:01;;;;;;;;;;;;;;;29.02;17.88;102622.78;5074277;28;853;-41
2022/02/13 00:33:27;;;;;;;;;;;;;;;29.08;17.92;102613.16;5073801;28;1902;-41
2022/02/13 00:35:52;;;;;;;;;;;;;;;28.36;18.42;102610.00;5077003;28;813;-42
2022/02/13 00:38:17;;;;;;;;;;;;;;;28.00;18.98;102620.56;5077486;28;1170;-41
2022/02/13 00:40:43;;;;;;;;;;;;;;;29.04;17.86;102606.34;5077230;28;817;-43
2022/02/13 00:43:08;;;;;;;;;;;;;;;28.94;17.81;102604.53;5070914;28;906;-41
2022/02/13 00:45:33;;;;;;;;;;;;;;;28.92;18.00;102609.25;5074492;28;903;-41
2022/02/13 00:47:59;;;;;;;;;;;;;;;30.49;16.45;102604.59;5076818;28;1473;-42
2022/02/13 00:50:24;;;;;;;;;;;;;;;30.27;16.71;102604.13;5077135;28;793;-43
2022/02/13 00:52:49;;;;;;;;;;;;;;;29.88;17.02;102599.94;5077285;28;893;-42
2022/02/13 00:55:15;;;;;;;;;;;;;;;29.68;17.19;102605.50;5077187;28;1957;-41
2022/02/13 00:57:40;;;;;;;;;;;;;;;29.72;17.16;102598.78;5070434;28;853;-41
2022/02/13 01:00:06;;;;;;;;;;;;;;;29.82;17.19;102591.41;5077091;28;821;-41
2022/02/13 01:02:31;;;;;;;;;;;;;;;29.93;16.94;102594.88;5076349;28;904;-42
2022/02/13 01:04:56;;;;;;;;;;;;;;;30.09;16.81;102596.00;5076800;28;851;-42
2022/02/13 01:07:21;;;;;;;;;;;;;;;30.15;16.80;102592.66;5076645;28;869;-41
2022/02/13 01:09:47;;;;;;;;;;;;;;;30.24;16.75;102591.75;5076030;28;947;-41
2022/02/13 01:12:12;;;;;;;;;;;;;;;30.28;16.56;102592.28;5076475;28;946;-41
2022/02/13 01:14:37;;;;;;;;;;;;;;;30.38;16.54;102582.13;5074693;28;1947;-41
2022/02/13 01:17:03;;;;;;;;;;;;;;;30.48;16.32;102576.59;5076558;28;804;-42
2022/02/13 01:19:29;;;;;;;;;;;;;;;30.58;16.33;102571.03;5076878;28;753;-41
2022/02/13 01:21:54;;;;;;;;;;;;;;;30.60;16.41;102570.88;5073768;28;821;-42
2022/02/13 01:24:20;;;;;;;;;;;;;;;30.63;16.40;102573.28;5073028;28;814;-40
2022/02/13 01:26:45;;;;;;;;;;;;;;;30.63;16.33;102571.41;5076622;28;796;-42
2022/02/13 01:29:10;;;;;;;;;;;;;;;30.71;16.16;102562.47;5075824;28;1036;-40
2022/02/13 01:31:36;;;;;;;;;;;;;;;30.77;16.39;102560.94;5076009;28;1037;-41
2022/02/13 01:34:01;;;;;;;;;;;;;;;30.81;16.09;102551.50;5075631;28;1906;-42
2022/02/13 01:36:27;;;;;;;;;;;;;;;30.76;16.16;102548.38;5073647;28;958;-41
2022/02/13 01:38:52;;;;;;;;;;;;;;;30.90;15.97;102557.78;5076218;28;853;-43
2022/02/13 01:41:18;;;;;;;;;;;;;;;30.90;16.16;102549.63;5076406;28;813;-43
2022/02/13 01:43:43;;;;;;;;;;;;;;;30.94;15.94;102555.59;5075564;28;875;-43
2022/02/13 01:46:09;;;;;;;;;;;;;;;30.95;15.95;102557.31;5076436;28;749;-43
2022/02/13 01:48:34;;;;;;;;;;;;;;;30.99;15.95;102553.22;5070564;28;805;-43
2022/02/13 01:51:00;;;;;;;;;;;;;;;31.01;16.00;102543.88;5069653;28;845;-43
2022/02/13 01:53:25;;;;;;;;;;;;;;;31.08;15.99;102543.22;5074540;28;1964;-42
2022/02/13 01:55:50;;;;;;;;;;;;;;;31.15;15.85;102553.25;5074742;28;1071;-42
2022/02/13 01:58:16;;;;;;;;;;;;;;;31.10;15.94;102547.47;5072435;28;861;-41
2022/02/13 02:00:41;;;;;;;;;;;;;;;31.16;15.97;102544.06;5075985;28;799;-44
2022/02/13 02:03:07;;;;;;;;;;;;;;;31.19;15.93;102547.47;5076306;28;831;-42
2022/02/13 02:05:32;;;;;;;;;;;;;;;31.12;15.93;102550.88;5075707;28;933;-45
2022/02/13 02:07:57;;;;;;;;;;;;;;;31.12;16.05;102548.16;5076246;28;844;-42
2022/02/13 02:10:23;;;;;;;;;;;;;;;31.16;15.87;102546.78;5075829;28;971;-44
2022/02/13 02:12:48;;;;;;;;;;;;;;;31.14;15.94;102543.41;5073465;28;851;-45
2022/02/13 02:15:14;;;;;;;;;;;;;;;31.22;16.02;102545.28;5073069;28;1894;-43
2022/02/13 02:17:39;;;;;;;;;;;;;;;31.24;15.75;102548.69;5075680;28;990;-40
2022/02/13 02:20:04;;;;;;;;;;;;;;;31.25;15.81;102536.78;5075528;28;825;-40
2022/02/13 02:22:30;;;;;;;;;;;;;;;31.24;15.80;102540.53;5075652;28;790;-43
2022/02/13 02:24:55;;;;;;;;;;;;;;;31.28;15.72;102538.34;5076376;28;714;-43
2022/02/13 02:27:20;;;;;;;;;;;;;;;31.29;15.88;102545.47;5073958;28;891;-42
2022/02/13 02:29:46;;;;;;;;;;;;;;;31.27;15.90;102540.19;5075727;28;1040;-45
2022/02/13 02:32:11;;;;;;;;;;;;;;;31.33;15.71;102535.94;5075518;28;1172;-43
2022/02/13 02:34:39;;;;;;;;;;;;;;;31.32;15.82;102544.25;5075243;28;1918;-43
2022/02/13 02:37:05;;;;;;;;;;;;;;;31.32;15.67;102542.41;5076292;28;852;-41
2022/02/13 02:39:31;;;;;;;;;;;;;;;31.34;15.61;102542.22;5070804;28;738;-41
2022/02/13 02:41:56;;;;;;;;;;;;;;;31.36;15.93;102545.63;5075651;28;853;-43
2022/02/13 02:44:21;;;;;;;;;;;;;;;31.32;15.63;102542.41;5071435;28;977;-44
2022/02/13 02:46:46;;;;;;;;;;;;;;;31.27;15.56;102548.34;5077569;28;1168;-44
2022/02/13 02:49:12;;;;;;;;;;;;;;;31.31;15.73;102548.88;5079350;28;822;-43
2022/02/13 02:51:37;;;;;;;;;;;;;;;31.43;15.54;102545.84;5078413;28;838;-43
2022/02/13 02:54:03;;;;;;;;;;;;;;;31.42;15.76;102539.56;5075480;28;1997;-41
2022/02/13 02:56:28;;;;;;;;;;;;;;;31.37;15.59;102547.34;5078855;28;806;-43
2022/02/13 02:58:53;;;;;;;;;;;;;;;31.33;15.63;102537.81;5076613;28;914;-42
2022/02/13 03:01:18;;;;;;;;;;;;;;;31.36;15.75;102543.78;5079117;28;761;-42
2022/02/13 03:03:44;;;;;;;;;;;;;;;31.41;15.47;102540.59;5078320;28;801;-43
2022/02/13 03:06:09;;;;;;;;;;;;;;;31.37;15.53;102541.88;5079088;28;869;-43
2022/02/13 03:08:34;;;;;;;;;;;;;;;30.05;16.53;102538.47;5078972;28;800;-41
2022/02/13 03:11:01;;;;;;;;;;;;;;;29.11;17.17;102425.06;5078799;28;860;-42
2022/02/13 03:13:27;;;;;;;;;;;;;;;31.09;16.00;102545.78;5078304;28;1890;-41
2022/02/13 03:15:52;;;;;;;;;;;;;;;31.15;15.76;102530.66;5079022;28;869;-41
2022/02/13 03:18:18;;;;;;;;;;;;;;;30.81;16.08;102529.75;5077854;28;891;-42
2022/02/13 03:20:46;;;;;;;;;;;;;;;30.57;16.50;102535.91;5071311;28;973;-42
2022/02/13 03:23:12;;;;;;;;;;;;;;;30.42;16.71;102531.09;5078583;28;833;-43
2022/02/13 03:25:37;;;;;;;;;;;;;;;30.44;16.44;102529.06;5079361;28;973;-42
2022/02/13 03:28:03;;;;;;;;;;;;;;;30.56;16.45;102532.34;5077466;28;1061;-43
2022/02/13 03:30:28;;;;;;;;;;;;;;;30.58;16.39;102535.72;5073983;28;1602;-44
2022/02/13 03:32:53;;;;;;;;;;;;;;;30.62;16.30;102520.81;5078323;28;1129;-42
2022/02/13 03:35:19;;;;;;;;;;;;;;;30.81;16.09;102528.88;5077974;28;1972;-42
2022/02/13 03:37:44;;;;;;;;;;;;;;;30.89;16.08;102531.63;5078576;28;761;-41
2022/02/13 03:40:10;;;;;;;;;;;;;;;30.86;16.15;102524.69;5078632;28;742;-42
2022/02/13 03:42:35;;;;;;;;;;;;;;;30.91;15.94;102524.16;5077075;28;758;-43
2022/02/13 03:45:00;;;;;;;;;;;;;;;30.99;16.09;102531.47;5078514;28;868;-42
2022/02/13 03:47:26;;;;;;;;;;;;;;;30.96;15.84;102529.09;5078189;28;805;-43
2022/02/13 03:49:52;;;;;;;;;;;;;;;30.92;15.95;102529.44;5077999;28;860;-42
2022/02/13 03:52:17;;;;;;;;;;;;;;;30.99;16.04;102520.59;5078307;28;822;-42
2022/02/13 03:54:42;;;;;;;;;;;;;;;31.02;16.05;102532.00;5076973;28;1890;-41
2022/02/13 03:57:08;;;;;;;;;;;;;;;31.08;15.76;102524.19;5077531;28;780;-42
2022/02/13 03:59:33;;;;;;;;;;;;;;;31.11;15.93;102524.72;5069453;28;974;-42
2022/02/13 04:01:58;;;;;;;;;;;;;;;31.13;15.91;102525.38;5077470;28;872;-42
2022/02/13 04:04:23;;;;;;;;;;;;;;;31.20;15.61;102524.75;5077342;28;857;-42
2022/02/13 04:06:49;;;;;;;;;;;;;;;31.21;15.85;102515.56;5077976;28;909;-44
2022/02/13 04:09:14;;;;;;;;;;;;;;;31.23;15.75;102525.22;5077552;28;918;-43
2022/02/13 04:11:39;;;;;;;;;;;;;;;31.23;15.61;102522.50;5077426;28;897;-43
2022/02/13 04:14:04;;;;;;;;;;;;;;;31.24;15.56;102520.66;5077379;28;1898;-44
2022/02/13 04:16:30;;;;;;;;;;;;;;;31.26;15.79;102527.59;5075992;28;1193;-42
2022/02/13 04:18:55;;;;;;;;;;;;;;;31.30;15.60;102524.56;5077170;28;817;-41
2022/02/13 04:21:20;;;;;;;;;;;;;;;31.36;15.66;102523.88;5073940;28;800;-42
2022/02/13 04:23:46;;;;;;;;;;;;;;;31.28;15.45;102517.41;5076983;28;1045;-43
2022/02/13 04:26:11;;;;;;;;;;;;;;;31.35;15.63;102525.75;5077086;28;845;-41
2022/02/13 04:28:36;;;;;;;;;;;;;;;31.27;15.54;102526.59;5073275;28;839;-42
2022/02/13 04:31:02;;;;;;;;;;;;;;;31.27;15.83;102526.59;5076999;28;852;-41
2022/02/13 04:33:27;;;;;;;;;;;;;;;31.33;15.52;102524.22;5070546;28;1969;-41
2022/02/13 04:35:52;;;;;;;;;;;;;;;31.33;15.51;102524.22;5076673;28;761;-38
2022/02/13 04:38:18;;;;;;;;;;;;;;;31.40;15.64;102530.69;5072052;28;988;-40
2022/02/13 04:40:43;;;;;;;;;;;;;;;31.38;15.55;102522.69;5071728;28;942;-42
2022/02/13 04:43:08;;;;;;;;;;;;;;;31.30;15.61;102519.97;5076822;28;857;-43
2022/02/13 04:45:34;;;;;;;;;;;;;;;31.28;15.62;102522.84;5074718;28;910;-43
2022/02/13 04:47:59;;;;;;;;;;;;;;;31.19;15.84;102526.59;5070134;28;917;-51
2022/02/13 04:50:25;;;;;;;;;;;;;;;30.70;15.54;102522.72;5074984;28;738;-44
2022/02/13 04:52:51;;;;;;;;;;;;;;;29.16;13.59;102513.00;5080467;28;1459;-46
2022/02/13 04:55:16;;;;;;;;;;;;;;;27.54;15.59;102518.41;5076649;28;1898;-44
2022/02/13 04:57:42;;;;;;;;;;;;;;;26.69;15.96;102518.81;5077587;28;863;-43
2022/02/13 05:00:07;;;;;;;;;;;;;;;26.49;16.40;102510.66;5070191;28;841;-45
2022/02/13 05:02:33;;;;;;;;;;;;;;;26.07;16.69;102511.53;5076516;28;905;-46
2022/02/13 05:04:58;;;;;;;;;;;;;;;25.59;16.54;102519.97;5070341;28;1115;-46
2022/02/13 05:07:23;;;;;;;;;;;;;;;25.34;17.02;102513.09;5076959;28;739;-47
2022/02/13 05:09:49;;;;;;;;;;;;;;;25.23;17.60;102514.84;5076242;28;916;-42
2022/02/13 05:12:14;;;;;;;;;;;;;;;24.32;17.45;102387.50;5075943;28;825;-42
2022/02/13 05:14:40;;;;;;;;;;;;;;;24.63;17.90;102518.72;5071491;28;1889;-41
2022/02/13 05:17:06;;;;;;;;;;;;;;;24.49;18.32;102511.72;5076580;28;741;-41
2022/02/13 05:19:31;;;;;;;;;;;;;;;24.51;18.32;102516.97;5075460;28;1300;-41
2022/02/13 05:21:57;;;;;;;;;;;;;;;24.37;18.50;102518.97;5076507;28;824;-39
2022/02/13 05:24:22;;;;;;;;;;;;;;;24.22;18.89;102515.63;5069401;28;845;-36
2022/02/13 05:26:47;;;;;;;;;;;;;;;23.95;19.07;102522.16;5075958;28;810;-36
2022/02/13 05:29:13;;;;;;;;;;;;;;;23.88;18.95;102521.75;5076396;28;801;-38
2022/02/13 05:31:38;;;;;;;;;;;;;;;23.65;19.29;102526.19;5076399;28;1090;-38
2022/02/13 05:34:03;;;;;;;;;;;;;;;22.90;19.27;102520.88;5076030;28;1977;-37
2022/02/13 05:36:29;;;;;;;;;;;;;;;23.06;19.49;102520.59;5073856;28;1114;-37
2022/02/13 05:38:54;;;;;;;;;;;;;;;23.09;19.42;102517.69;5076544;28;805;-37
2022/02/13 05:41:19;;;;;;;;;;;;;;;23.10;19.50;102522.09;5076199;28;1466;-38
2022/02/13 05:43:45;;;;;;;;;;;;;;;22.61;19.59;102516.63;5076416;28;801;-38
2022/02/13 05:46:10;;;;;;;;;;;;;;;22.75;19.56;102521.00;5076138;28;992;-36
2022/02/13 05:48:35;;;;;;;;;;;;;;;22.73;19.83;102520.25;5076136;28;872;-38
2022/02/13 05:51:01;;;;;;;;;;;;;;;22.65;19.68;102522.63;5075848;28;919;-38
2022/02/13 05:53:27;;;;;;;;;;;;;;;22.60;19.77;102522.94;5076036;28;1965;-38
2022/02/13 05:55:52;;;;;;;;;;;;;;;22.57;19.85;102524.00;5070763;28;1572;-38
2022/02/13 05:58:17;;;;;;;;;;;;;;;22.52;19.80;102523.50;5075591;28;930;-37
2022/02/13 06:00:43;;;;;;;;;;;;;;;22.41;19.94;102515.31;5076015;28;876;-38
2022/02/13 06:03:09;;;;;;;;;;;;;;;22.24;20.35;102522.72;5073605;28;903;-38
2022/02/13 06:05:35;;;;;;;;;;;;;;;21.82;20.55;102518.38;5075753;28;855;-35
2022/02/13 06:08:00;;;;;;;;;;;;;;;22.09;20.42;102521.94;5076015;28;802;-36
2022/02/13 06:10:25;;;;;;;;;;;;;;;22.52;20.36;102523.50;5075989;28;878;-35
2022/02/13 06:12:50;;;;;;;;;;;;;;;22.67;20.01;102516.19;5072120;28;839;-35
2022/02/13 06:15:16;;;;;;;;;;;;;;;22.81;20.22;102519.69;5075145;28;1965;-37
2022/02/13 06:17:41;;;;;;;;;;;;;;;22.94;20.01;102527.75;5075485;28;935;-36
2022/02/13 06:20:07;;;;;;;;;;;;;;;22.88;20.31;102523.66;5076136;28;812;-36
2022/02/13 06:22:32;;;;;;;;;;;;;;;22.83;20.48;102517.78;5079340;28;933;-35
2022/02/13 06:24:57;;;;;;;;;;;;;;;22.81;20.50;102530.44;5079718;28;785;-35
2022/02/13 06:27:23;;;;;;;;;;;;;;;22.83;20.40;102515.97;5078112;28;835;-36
2022/02/13 06:29:49;;;;;;;;;;;;;;;22.77;20.37;102519.09;5078594;28;755;-37
2022/02/13 06:32:15;;;;;;;;;;;;;;;22.87;20.45;102521.97;5075847;28;1470;-36
2022/02/13 06:34:40;;;;;;;;;;;;;;;22.77;20.72;102516.41;5079466;28;1906;-36
2022/02/13 06:37:05;;;;;;;;;;;;;;;22.80;21.15;102524.22;5079463;28;865;-35
2022/02/13 06:39:31;;;;;;;;;;;;;;;22.75;21.08;102519.16;5079947;28;1129;-34
2022/02/13 06:41:56;;;;;;;;;;;;;;;22.69;21.06;102506.19;5079403;28;882;-34
2022/02/13 06:44:21;;;;;;;;;;;;;;;22.75;21.01;102513.81;5079033;28;1169;-34
2022/02/13 06:46:47;;;;;;;;;;;;;;;22.72;20.97;102522.06;5079342;28;905;-34
2022/02/13 06:49:12;;;;;;;;;;;;;;;22.65;21.16;102520.81;5079361;28;845;-34
2022/02/13 06:51:37;;;;;;;;;;;;;;;23.34;20.65;102507.81;5079792;28;777;-34
2022/02/13 06:54:03;;;;;;;;;;;;;;;23.90;20.14;102505.50;5078709;28;1953;-33
2022/02/13 06:56:28;;;;;;;;;;;;;;;24.09;19.75;102505.78;5079085;28;725;-34
2022/02/13 06:58:53;;;;;;;;;;;;;;;24.18;19.72;102504.25;5072956;28;1079;-34
2022/02/13 07:01:19;;;;;;;;;;;;;;;24.21;20.24;102504.00;5077822;28;1245;-36
2022/02/13 07:03:44;;;;;;;;;;;;;;;25.01;19.54;102508.53;5078815;28;813;-35
2022/02/13 07:06:09;;;;;;;;;;;;;;;25.35;19.31;102510.28;5078252;28;1122;-38
2022/02/13 07:08:35;;;;;;;;;;;;;;;25.64;19.25;102498.91;5072553;28;1088;-35
2022/02/13 07:11:00;;;;;;;;;;;;;;;25.90;19.29;102506.63;5076251;28;1111;-33
2022/02/13 07:13:25;;;;;;;;;;;;;;;25.57;19.83;102505.78;5075520;28;1967;-43
2022/02/13 07:15:50;;;;;;;;;;;;;;;25.21;20.32;102500.63;5079022;28;761;-43
2022/02/13 07:18:16;;;;;;;;;;;;;;;25.38;20.28;102503.75;5078795;28;828;-44
2022/02/13 07:20:41;;;;;;;;;;;;;;;25.94;19.58;102498.25;5077751;28;907;-43
2022/02/13 07:23:06;;;;;;;;;;;;;;;26.27;19.40;102504.41;5078542;28;847;-44
2022/02/13 07:25:32;;;;;;;;;;;;;;;26.40;19.37;102501.50;5078583;28;940;-43
2022/02/13 07:27:57;;;;;;;;;;;;;;;26.60;19.20;102490.78;5077433;28;1095;-43
2022/02/13 07:30:22;;;;;;;;;;;;;;;25.99;19.88;102493.31;5074209;28;1083;-44
2022/02/13 07:32:48;;;;;;;;;;;;;;;25.72;20.18;102490.19;5071965;28;1205;-43
2022/02/13 07:35:13;;;;;;;;;;;;;;;25.64;20.36;102480.03;5078393;28;1914;-43
2022/02/13 07:37:39;;;;;;;;;;;;;;;25.62;20.37;102476.59;5077977;28;909;-43
2022/02/13 07:40:04;;;;;;;;;;;;;;;25.61;20.58;102485.66;5078686;28;993;-44
2022/02/13 07:42:30;;;;;;;;;;;;;;;25.71;20.50;102474.97;5077026;28;1093;-42
2022/02/13 07:44:55;;;;;;;;;;;;;;;25.79;20.27;102475.19;5077761;28;845;-43
2022/02/13 07:47:21;;;;;;;;;;;;;;;25.85;20.20;102476.50;5078582;28;768;-43
2022/02/13 07:49:46;;;;;;;;;;;;;;;25.86;20.43;102478.19;5078094;28;786;-42
2022/02/13 07:52:11;;;;;;;;;;;;;;;25.92;20.46;102488.44;5078073;28;872;-43
2022/02/13 07:54:36;;;;;;;;;;;;;;;25.94;20.25;102480.25;5078059;28;1945;-42
2022/02/13 07:57:04;;;;;;;;;;;;;;;26.02;19.86;102480.44;5071750;28;1108;-43
2022/02/13 07:59:29;;;;;;;;;;;;;;;26.14;20.15;102477.66;5070376;28;996;-42
2022/02/13 08:01:54;;;;;;;;;;;;;;;26.19;20.27;102474.56;5073769;28;1210;-42
2022/02/13 08:04:20;;;;;;;;;;;;;;;26.26;20.12;102479.25;5073263;28;1154;-43
2022/02/13 08:06:45;;;;;;;;;;;;;;;26.38;19.97;102466.56;5075641;28;1020;-42
2022/02/13 08:09:12;;;;;;;;;;;;;;;26.41;19.96;102478.91;5077326;28;799;-43
2022/02/13 08:11:37;;;;;;;;;;;;;;;26.40;20.24;102467.28;5077619;28;1353;-43
2022/02/13 08:14:03;;;;;;;;;;;;;;;26.43;20.20;102482.34;5074313;28;1897;-42
2022/02/13 08:16:28;;;;;;;;;;;;;;;26.36;19.95;102476.63;5076789;28;1157;-43
2022/02/13 08:18:53;;;;;;;;;;;;;;;26.32;20.04;102464.38;5071578;28;1420;-43
2022/02/13 08:21:18;;;;;;;;;;;;;;;26.35;20.09;102474.06;5077818;28;780;-43
2022/02/13 08:23:44;;;;;;;;;;;;;;;26.28;20.25;102466.50;5076645;28;802;-43
2022/02/13 08:26:09;;;;;;;;;;;;;;;26.38;20.01;102474.66;5069944;28;1346;-43
2022/02/13 08:28:35;;;;;;;;;;;;;;;26.46;20.37;102467.75;5073221;28;895;-43
2022/02/13 08:31:01;;;;;;;;;;;;;;;26.29;20.28;102470.06;5077267;28;967;-42
2022/02/13 08:33:26;;;;;;;;;;;;;;;26.20;20.28;102468.16;5077185;28;1906;-43
2022/02/13 08:35:51;;;;;;;;;;;;;;;26.14;20.56;102474.97;5076420;28;793;-42
2022/02/13 08:38:17;;;;;;;;;;;;;;;26.04;20.61;102477.59;5077092;28;827;-42
2022/02/13 08:40:42;;;;;;;;;;;;;;;25.96;20.53;102472.88;5077052;28;869;-43
2022/02/13 08:43:08;;;;;;;;;;;;;;;25.92;20.73;102474.97;5070710;28;804;-42
2022/02/13 08:45:33;;;;;;;;;;;;;;;25.80;20.55;102473.34;5076533;28;868;-43
2022/02/13 08:47:59;;;;;;;;;;;;;;;25.74;20.76;102472.00;5073049;28;895;-43
2022/02/13 08:50:24;;;;;;;;;;;;;;;25.68;20.92;102467.16;5077198;28;773;-43
2022/02/13 08:52:50;;;;;;;;;;;;;;;25.62;21.12;102459.56;5076894;28;793;-43
2022/02/13 08:55:15;;;;;;;;;;;;;;;25.65;20.89;102462.91;5077095;28;1929;-42
2022/02/13 08:57:41;;;;;;;;;;;;;;;25.65;20.83;102457.50;5073056;28;835;-42
2022/02/13 09:00:07;;;;;;;;;;;;;;;25.73;21.05;102458.66;5076328;28;857;-42
2022/02/13 09:02:33;;;;;;;;;;;;;;;25.87;20.67;102455.66;5077142;28;817;-43
2022/02/13 09:04:58;;;;;;;;;;;;;;;26.27;20.00;102459.41;5076693;28;813;-43
2022/02/13 09:07:24;;;;;;;;;;;;;;;26.38;20.14;102447.69;5076732;28;1027;-43
2022/02/13 09:09:49;;;;;;;;;;;;;;;25.98;20.74;102443.06;5076603;28;808;-43
2022/02/13 09:12:19;;;;;;;;;;;;;;;25.86;20.97;102447.72;5076704;28;867;-42
2022/02/13 09:14:44;;;;;;;;;;;;;;;25.83;20.65;102448.81;5072388;28;1894;-43
2022/02/13 09:17:09;;;;;;;;;;;;;;;25.80;20.96;102447.25;5077033;28;798;-43
2022/02/13 09:19:35;;;;;;;;;;;;;;;25.74;20.97;102452.31;5076824;28;754;-42
2022/02/13 09:22:00;;;;;;;;;;;;;;;25.69;20.98;102444.63;5076005;28;845;-43
2022/02/13 09:24:25;;;;;;;;;;;;;;;25.67;20.94;102443.91;5076730;28;809;-42
2022/02/13 09:26:51;;;;;;;;;;;;;;;25.69;20.86;102447.31;5076041;28;784;-42
2022/02/13 09:29:16;;;;;;;;;;;;;;;25.69;21.10;102433.84;5069414;28;847;-42
2022/02/13 09:31:42;;;;;;;;;;;;;;;25.68;21.14;102430.28;5076606;28;1071;-42
2022/02/13 09:34:07;;;;;;;;;;;;;;;25.70;20.94;102415.81;5076480;28;1967;-42
2022/02/13 09:36:32;;;;;;;;;;;;;;;25.62;21.01;102432.63;5076129;28;742;-43
2022/02/13 09:38:58;;;;;;;;;;;;;;;25.59;21.27;102417.56;5075664;28;849;-43
2022/02/13 09:41:23;;;;;;;;;;;;;;;25.68;21.16;102414.13;5076131;28;916;-43
2022/02/13 09:43:48;;;;;;;;;;;;;;;25.76;20.96;102423.38;5076332;28;841;-42
2022/02/13 09:46:15;;;;;;;;;;;;;;;25.64;21.05;102404.56;5076596;28;853;-43
2022/02/13 09:48:40;;;;;;;;;;;;;;;25.76;21.26;102415.28;5076326;28;849;-43
2022/02/13 09:51:06;;;;;;;;;;;;;;;25.10;21.26;102286.13;5075283;28;877;-43
2022/02/13 09:53:34;;;;;;;;;;;;;;;25.78;21.05;102398.00;5070544;28;1963;-43
2022/02/13 09:56:03;;;;;;;;;;;;;;;25.69;21.19;102396.13;5077241;28;845;-42
2022/02/13 09:58:30;;;;;;;;;;;;;;;25.78;21.02;102392.59;5078735;28;1147;-43
2022/02/13 10:00:55;;;;;;;;;;;;;;;25.82;21.15;102397.72;5080304;28;1156;-43
2022/02/13 10:03:22;;;;;;;;;;;;;;;25.79;21.21;102396.16;5080219;28;742;-42
2022/02/13 10:05:47;;;;;;;;;;;;;;;25.78;21.16;102387.22;5077152;28;882;-43
2022/02/13 10:08:25;;;;;;;;;;;;;;;25.72;21.30;102384.19;5073579;28;768;-43
2022/02/13 10:10:51;;;;;;;;;;;;;;;25.76;21.12;102374.84;5079965;28;893;-43
2022/02/13 10:13:17;;;;;;;;;;;;;;;25.85;21.02;102371.34;5077624;28;1174;-42
2022/02/13 10:15:42;;;;;;;;;;;;;;;25.72;20.65;102368.03;5079900;28;1905;-42
2022/02/13 10:18:08;;;;;;;;;;;;;;;25.58;21.08;102366.50;5073667;28;860;-42
2022/02/13 10:20:34;;;;;;;;;;;;;;;25.63;21.18;102373.22;5079536;28;809;-43
2022/02/13 10:23:06;;;;;;;;;;;;;;;25.56;20.74;102363.94;5080295;28;764;-42
2022/02/13 10:25:32;;;;;;;;;;;;;;;25.62;20.14;102360.72;5079923;28;860;-43
2022/02/13 10:27:57;;;;;;;;;;;;;;;25.52;20.67;102357.13;5074134;28;875;-43
2022/02/13 10:30:36;;;;;;;;;;;;;;;25.59;21.08;102358.28;5076668;28;812;-43
2022/02/13 10:33:14;;;;;;;;;;;;;;;25.48;21.25;102358.34;5079596;28;1220;-42
2022/02/13 10:35:39;;;;;;;;;;;;;;;25.51;19.98;102348.16;5079703;28;1906;-43
2022/02/13 10:38:04;;;;;;;;;;;;;;;25.55;19.54;102344.25;5079565;28;1014;-42
2022/02/13 10:40:31;;;;;;;;;;;;;;;25.59;19.75;102347.50;5079555;28;860;-43
2022/02/13 10:43:11;;;;;;;;;;;;;;;25.55;20.02;102344.25;5074999;28;861;-42
2022/02/13 10:45:40;;;;;;;;;;;;;;;25.56;19.35;102334.28;5079142;28;825;-43
2022/02/13 10:48:05;;;;;;;;;;;;;;;25.60;19.88;102324.97;5079409;28;797;-42
2022/02/13 10:50:32;;;;;;;;;;;;;;;25.54;20.51;102333.59;5079225;28;881;-42
2022/02/13 10:52:59;;;;;;;;;;;;;;;25.54;20.19;102331.72;5079491;28;788;-43
2022/02/13 10:55:27;;;;;;;;;;;;;;;25.59;19.72;102322.41;5079375;28;1894;-43
2022/02/13 10:57:54;;;;;;;;;;;;;;;25.55;20.01;102314.59;5078875;28;829;-43
2022/02/13 11:00:19;;;;;;;;;;;;;;;25.64;20.83;102309.41;5078827;28;813;-43
2022/02/13 11:02:45;;;;;;;;;;;;;;;25.59;21.53;102317.84;5079521;28;792;-43
2022/02/13 11:05:10;;;;;;;;;;;;;;;25.66;21.22;102302.03;5079087;28;766;-43
2022/02/13 11:07:37;;;;;;;;;;;;;;;25.58;21.52;102318.00;5074638;28;1103;-43
2022/02/13 11:10:03;;;;;;;;;;;;;;;25.67;21.00;102318.06;5075264;28;1297;-43
2022/02/13 11:12:28;;;;;;;;;;;;;;;25.76;21.32;102304.75;5077312;28;1285;-44
2022/02/13 11:15:12;;;;;;;;;;;;;;;25.71;20.81;102304.34;5074516;28;1949;-43
2022/02/13 11:17:37;;;;;;;;;;;;;;;25.64;19.76;102307.56;5079159;28;803;-43
2022/02/13 11:20:04;;;;;;;;;;;;;;;25.54;18.77;102299.41;5078325;28;902;-44
2022/02/13 11:22:36;;;;;;;;;;;;;;;25.37;19.71;102295.50;5075558;28;845;-43
2022/02/13 11:25:01;;;;;;;;;;;;;;;25.16;18.88;102298.19;5079249;28;799;-44
2022/02/13 11:27:29;;;;;;;;;;;;;;;25.15;18.66;102283.91;5075643;28;1158;-45
2022/02/13 11:29:55;;;;;;;;;;;;;;;24.77;18.34;102285.28;5074828;28;1235;-45
2022/02/13 11:32:40;;;;;;;;;;;;;;;24.56;18.45;102275.34;5077596;28;1439;-47
2022/02/13 11:35:09;;;;;;;;;;;;;;;24.56;20.04;102270.81;5071581;28;1951;-43
2022/02/13 11:37:44;;;;;;;;;;;;;;;24.91;19.00;102263.47;5078416;28;1286;-43
2022/02/13 11:40:27;;;;;;;;;;;;;;;24.56;18.26;102273.50;5078586;28;814;-43
2022/02/13 11:42:52;;;;;;;;;;;;;;;24.50;19.39;102260.56;5075422;28;868;-43
2022/02/13 11:45:18;;;;;;;;;;;;;;;24.71;19.48;102265.13;5078482;28;865;-43
2022/02/13 11:47:45;;;;;;;;;;;;;;;24.55;19.05;102261.06;5075590;28;847;-43
2022/02/13 11:50:15;;;;;;;;;;;;;;;24.57;19.87;102258.22;5077564;28;1442;-44
2022/02/13 11:52:55;;;;;;;;;;;;;;;24.38;18.86;102251.69;5074591;28;889;-43
2022/02/13 11:55:21;;;;;;;;;;;;;;;24.61;19.81;102248.91;5077930;28;1967;-44
2022/02/13 11:57:56;;;;;;;;;;;;;;;24.47;19.16;102242.00;5077099;28;919;-43
2022/02/13 12:00:40;;;;;;;;;;;;;;;24.49;18.04;102240.03;5077176;28;1023;-43
2022/02/13 12:03:25;;;;;;;;;;;;;;;24.46;18.52;102241.16;5074254;28;1178;-43
2022/02/13 12:06:03;;;;;;;;;;;;;;;24.56;18.62;102240.38;5074275;28;839;-43
2022/02/13 12:08:28;;;;;;;;;;;;;;;24.56;18.14;102234.97;5077919;28;873;-43
2022/02/13 12:11:00;;;;;;;;;;;;;;;24.54;18.68;102227.03;5077683;28;857;-43
2022/02/13 12:13:25;;;;;;;;;;;;;;;24.50;17.67;102231.00;5069996;28;1112;-43
2022/02/13 12:15:50;;;;;;;;;;;;;;;24.54;17.61;102226.22;5077876;28;1898;-43
2022/02/13 12:18:16;;;;;;;;;;;;;;;24.04;17.23;102204.22;5077045;28;836;-43
2022/02/13 12:20:41;;;;;;;;;;;;;;;24.37;17.95;102203.41;5077579;28;810;-43
2022/02/13 12:23:08;;;;;;;;;;;;;;;24.47;17.57;102223.19;5077638;28;833;-43
2022/02/13 12:25:34;;;;;;;;;;;;;;;24.40;17.70;102209.38;5076889;28;811;-43
2022/02/13 12:27:59;;;;;;;;;;;;;;;24.13;17.65;102207.97;5077510;28;1183;-43
2022/02/13 12:30:26;;;;;;;;;;;;;;;24.31;18.09;102202.06;5076990;28;882;-42
2022/02/13 12:32:54;;;;;;;;;;;;;;;24.35;17.99;102206.22;5076182;28;1501;-43
2022/02/13 12:35:20;;;;;;;;;;;;;;;24.41;18.22;102202.16;5077024;28;1965;-43
2022/02/13 12:37:48;;;;;;;;;;;;;;;24.54;18.24;102205.53;5072957;28;1202;-42
2022/02/13 12:40:14;;;;;;;;;;;;;;;24.86;18.56;102200.22;5077245;28;877;-43
2022/02/13 12:42:41;;;;;;;;;;;;;;;24.72;18.64;102206.78;5074279;28;839;-42
2022/02/13 12:45:08;;;;;;;;;;;;;;;24.74;18.72;102202.13;5077108;28;828;-42
2022/02/13 12:47:34;;;;;;;;;;;;;;;24.83;18.99;102193.25;5077356;28;769;-43